Airfield :
LOGIN :

Register | Disclaimer

   EN    FR    IT 

 










Legend :    VFR   Marginal VFR   IFR   Intensive IFR   Very Intensive IFR
Visi :
Ceiling :
>= 8 km
>= 3000ft
5 to 8 km
1000 to 3000 ft
1500m to 5 km
500 to 1000 ft
800 to 1500m
200 to 500 ft
< 800m
< 200 ft
Symbols :   Thunderstorms  Fog  Heavy snow  Heavy precipitations  Wind > 20 kt
SIGMETs :     Misc.  Thunderstorms  Icing  Turbulence  Mountain Waves  Volcanic Ashes







- Airport Elevation : 141 ft
- IATA code : SKS


EKSP - Srydstrup Vojens

CURRENT METAR :
  • 252350Z 10011KT CAVOK 12/09 Q1009 RMK SCT140

EXPIRED METARs :
  • 252320Z 10009KT CAVOK 11/09 Q1010 RMK FEW220
  • 252250Z 10010KT CAVOK 12/09 Q1010 RMK FEW220
  • 252220Z 10008KT CAVOK 12/08 Q1010 RMK FEW190
  • 252150Z 09008KT CAVOK 12/08 Q1010 RMK FEW120
  • 252120Z 09007KT CAVOK 12/08 Q1010

TAF TAF EKSP
Valid from the 26 at 00:00 until the 27 at 00:00 UTC


252309Z 2600/2624 12008KT 9999 SCT030 BKN200
PROB40 2610/2615 TS
TEMPO 2610/2615 4000 SHRA BKN008 SCT030CB
BECMG 2610/2613 28008KT
TEMPO 2615/2619 7000 BKN008
TEMPO 2619/2623 2000 BR BKN004
TEMPO 2623/2624 0200 FG VV001
No reported NOTAMs for that airfield.



MET'MAP, your aeronautical weather chart ! - Copyright ORBIFLY December 2007 - Disclaimer

ORBIFLY MET'MAP TEAM :

Programming & Development : Alexandra Zaïnal
Concept & Development : Baudouin d'Aumeries
Co-Development & Prog : Marc-Olivier Méhu
Technical & hardware support : Manuel Goepfert

Contact : metmap@orbifly.com




SOURCES & CREDITS :

   NOAA